Time;durP1;ratioP1;P1;durP2;ratioP2;P2;SDS_P1;SDS_P2;PMS_P1;PMS_P2;Temp;Humidity;BMP_temperature;BMP_pressure;BME280_temperature;BME280_humidity;BME280_pressure;Samples;Min_cycle;Max_cycle;Signal;HPM_P1;HPM_P2
2023/04/25 00:01:44;;;;;;;8.00;3.40;;;;;;;5.65;100.00;93319.59;4755769;30;20549;-58
2023/04/25 00:04:33;;;;;;;6.97;3.70;;;;;;;5.52;100.00;93316.56;4754742;30;20139;-58
2023/04/25 00:07:20;;;;;;;7.73;3.90;;;;;;;5.71;100.00;93315.25;4753808;30;20111;-58
2023/04/25 00:10:08;;;;;;;8.27;4.10;;;;;;;5.66;100.00;93308.31;4753772;30;20152;-58
2023/04/25 00:12:55;;;;;;;18.00;9.35;;;;;;;5.52;100.00;93306.44;4754444;30;20475;-58
2023/04/25 00:15:42;;;;;;;11.15;5.57;;;;;;;5.71;100.00;93304.38;4753606;30;20077;-58
2023/04/25 00:18:29;;;;;;;11.82;5.97;;;;;;;5.70;100.00;93305.56;4753358;30;20067;-58
2023/04/25 00:21:17;;;;;;;9.00;4.33;;;;;;;5.75;100.00;93303.16;4752849;30;20151;-58
2023/04/25 00:24:05;;;;;;;6.82;3.88;;;;;;;5.75;100.00;93305.13;4752986;30;20060;-58
2023/04/25 00:26:54;;;;;;;9.48;4.43;;;;;;;5.87;100.00;93295.72;4753032;30;20491;-58
2023/04/25 00:29:41;;;;;;;16.88;7.57;;;;;;;5.97;100.00;93289.44;4754666;30;20072;-58
2023/04/25 00:32:28;;;;;;;14.80;7.22;;;;;;;6.02;100.00;93280.84;4753698;30;20048;-58
2023/04/25 00:35:15;;;;;;;12.53;5.57;;;;;;;6.04;100.00;93285.88;4746885;30;20052;-58
2023/04/25 00:38:02;;;;;;;9.18;4.18;;;;;;;5.91;100.00;93264.53;4752330;30;20052;-59
2023/04/25 00:40:49;;;;;;;7.82;4.53;;;;;;;5.79;100.00;93271.28;4752816;30;20041;-59
2023/04/25 00:43:37;;;;;;;10.07;4.88;;;;;;;5.59;100.00;93275.66;4752335;30;20430;-58
2023/04/25 00:46:24;;;;;;;8.18;4.63;;;;;;;5.47;100.00;93281.59;4752858;30;20057;-58
2023/04/25 00:49:15;;;;;;;8.50;4.37;;;;;;;5.56;100.00;93279.22;4754154;30;20066;-58
2023/04/25 00:52:02;;;;;;;7.28;4.10;;;;;;;5.55;100.00;93277.66;4752549;30;20144;-58
2023/04/25 00:54:49;;;;;;;7.60;3.90;;;;;;;5.46;100.00;93272.66;4753034;30;20070;-67
2023/04/25 00:57:36;;;;;;;6.50;3.50;;;;;;;5.23;100.00;93286.00;4753996;30;20060;-58
2023/04/25 01:00:23;;;;;;;8.23;4.28;;;;;;;5.11;100.00;93285.28;4752795;30;20598;-57
2023/04/25 01:03:10;;;;;;;6.70;3.47;;;;;;;4.93;100.00;93281.84;4752720;30;20133;-58
2023/04/25 01:05:57;;;;;;;7.60;4.10;;;;;;;4.76;100.00;93276.09;4752148;30;20190;-58
2023/04/25 01:08:44;;;;;;;7.47;3.92;;;;;;;4.86;100.00;93279.94;4750404;30;20059;-58
2023/04/25 01:11:31;;;;;;;8.25;3.90;;;;;;;4.92;100.00;93283.03;4752098;30;20422;-58
2023/04/25 01:14:18;;;;;;;7.97;4.10;;;;;;;5.03;100.00;93286.50;4752733;30;20055;-58
2023/04/25 01:17:07;;;;;;;7.83;3.23;;;;;;;5.10;100.00;93280.25;4753731;30;20489;-58
2023/04/25 01:19:55;;;;;;;6.95;3.58;;;;;;;5.20;100.00;93282.13;4752739;30;20062;-58
2023/04/25 01:22:42;;;;;;;8.80;4.82;;;;;;;5.19;100.00;93297.69;4752866;30;20056;-58
2023/04/25 01:25:33;;;;;;;9.55;3.95;;;;;;;5.15;100.00;93309.72;4762647;30;20052;-58
2023/04/25 01:28:20;;;;;;;6.43;3.05;;;;;;;5.05;100.00;93307.84;4764649;30;20140;-58
2023/04/25 01:31:08;;;;;;;7.10;3.20;;;;;;;4.96;100.00;93316.44;4770614;30;20053;-58
2023/04/25 01:33:55;;;;;;;5.82;3.00;;;;;;;4.68;100.00;93306.44;4770319;30;20063;-58
2023/04/25 01:36:42;;;;;;;5.30;3.25;;;;;;;4.48;100.00;93303.38;4769626;30;20056;-58
2023/04/25 01:39:29;;;;;;;4.63;2.75;;;;;;;4.33;100.00;93289.03;4769991;30;20051;-58
2023/04/25 01:42:16;;;;;;;6.57;2.83;;;;;;;4.34;100.00;93302.22;4769803;30;20059;-58
2023/04/25 01:45:04;;;;;;;5.67;2.60;;;;;;;4.37;100.00;93308.84;4770573;30;20052;-58
2023/04/25 01:47:51;;;;;;;5.38;2.90;;;;;;;4.55;100.00;93300.66;4768549;30;20603;-58
2023/04/25 01:50:39;;;;;;;5.10;2.85;;;;;;;4.74;100.00;93305.63;4769685;30;20079;-58
2023/04/25 01:53:25;;;;;;;4.30;2.30;;;;;;;4.71;100.00;93287.41;4770116;30;20058;-59
2023/04/25 01:56:12;;;;;;;6.10;2.45;;;;;;;4.66;100.00;93282.34;4769943;30;20113;-58
2023/04/25 01:58:59;;;;;;;5.40;2.87;;;;;;;4.86;100.00;93279.19;4769936;30;20058;-58
2023/04/25 02:01:46;;;;;;;4.75;2.58;;;;;;;4.94;100.00;93267.88;4769517;30;20121;-57
2023/04/25 02:04:33;;;;;;;5.93;3.08;;;;;;;4.90;100.00;93261.69;4770163;30;20083;-58
2023/04/25 02:07:20;;;;;;;6.75;3.60;;;;;;;4.84;100.00;93255.09;4770095;30;20063;-58
2023/04/25 02:10:07;;;;;;;6.35;3.22;;;;;;;4.77;100.00;93247.75;4769979;30;20050;-58
2023/04/25 02:12:54;;;;;;;7.07;2.90;;;;;;;4.74;100.00;93256.69;4769847;30;20397;-59
2023/04/25 02:15:41;;;;;;;6.65;3.00;;;;;;;4.66;100.00;93254.41;4759636;30;20051;-58
2023/04/25 02:18:28;;;;;;;7.00;3.20;;;;;;;4.54;100.00;93248.22;4769104;30;20068;-58
2023/04/25 02:21:15;;;;;;;7.38;3.50;;;;;;;4.46;100.00;93254.06;4769544;30;20051;-58
2023/04/25 02:24:03;;;;;;;6.90;3.60;;;;;;;4.50;100.00;93249.41;4769269;30;20140;-67
2023/04/25 02:26:50;;;;;;;5.40;3.10;;;;;;;4.42;100.00;93245.94;4768841;30;20498;-58
2023/04/25 02:29:37;;;;;;;5.97;3.42;;;;;;;4.32;100.00;93252.94;4768511;30;20059;-58
2023/04/25 02:32:24;;;;;;;5.90;3.38;;;;;;;4.30;100.00;93249.06;4764123;30;20051;-57
2023/04/25 02:35:11;;;;;;;7.50;3.20;;;;;;;4.29;100.00;93244.81;4769064;30;20055;-57
2023/04/25 02:37:57;;;;;;;6.43;3.67;;;;;;;4.33;100.00;93243.63;4769778;30;20060;-58
2023/04/25 02:40:44;;;;;;;7.33;3.40;;;;;;;4.34;100.00;93237.03;4768892;30;20052;-57
2023/04/25 02:43:31;;;;;;;6.22;3.10;;;;;;;4.36;100.00;93239.34;4769315;30;20058;-58
2023/04/25 02:46:18;;;;;;;6.30;3.58;;;;;;;4.32;100.00;93241.31;4768686;30;20048;-58
2023/04/25 02:49:23;;;;;;;6.15;3.30;;;;;;;4.38;100.00;93237.03;4769423;30;20063;-58
2023/04/25 02:52:11;;;;;;;7.20;3.33;;;;;;;4.49;100.00;93226.13;4769075;30;20051;-58
2023/04/25 02:54:58;;;;;;;6.90;3.30;;;;;;;4.48;100.00;93230.00;4768989;30;20052;-57
2023/04/25 02:57:44;;;;;;;7.80;3.42;;;;;;;4.50;100.00;93233.88;4769133;30;20060;-58
2023/04/25 03:00:31;;;;;;;7.45;3.47;;;;;;;4.46;100.00;93235.06;4768758;30;20062;-57
2023/04/25 03:03:21;;;;;;;5.97;3.55;;;;;;;4.53;100.00;93224.94;4764720;30;20063;-58
2023/04/25 03:06:08;;;;;;;8.40;3.70;;;;;;;4.31;100.00;93231.63;4769625;30;20064;-58
2023/04/25 03:08:55;;;;;;;7.10;3.43;;;;;;;4.24;100.00;93235.09;4768678;30;20541;-58
2023/04/25 03:11:43;;;;;;;7.07;3.58;;;;;;;4.10;100.00;93241.34;4768046;30;20399;-58
2023/04/25 03:14:30;;;;;;;6.60;3.97;;;;;;;4.07;100.00;93239.44;4760677;30;20102;-58
2023/04/25 03:17:17;;;;;;;6.55;3.80;;;;;;;4.03;100.00;93237.88;4763886;30;20056;-58
2023/04/25 03:20:05;;;;;;;9.00;4.18;;;;;;;3.49;100.00;93237.91;4762068;30;20059;-58
2023/04/25 03:22:52;;;;;;;7.63;3.70;;;;;;;3.48;100.00;93234.44;4769457;30;20080;-58
2023/04/25 03:25:38;;;;;;;8.15;4.03;;;;;;;3.44;100.00;93241.00;4766977;30;20060;-58
2023/04/25 03:28:25;;;;;;;7.20;4.00;;;;;;;3.40;100.00;93241.78;4768803;30;20099;-58
2023/04/25 03:31:12;;;;;;;8.88;4.10;;;;;;;3.37;100.00;93233.63;4768689;30;20066;-58
2023/04/25 03:33:59;;;;;;;6.75;4.00;;;;;;;3.43;100.00;93229.38;4769726;30;20056;-58
2023/04/25 03:36:46;;;;;;;9.57;4.03;;;;;;;3.29;100.00;93234.78;4768399;30;20058;-58
2023/04/25 03:39:32;;;;;;;7.15;4.00;;;;;;;3.22;100.00;93224.72;4768650;30;20062;-58
2023/04/25 03:42:19;;;;;;;7.93;4.10;;;;;;;3.15;100.00;93236.31;4768533;30;20051;-58
2023/04/25 03:45:07;;;;;;;7.25;3.67;;;;;;;3.16;100.00;93234.41;4768743;30;20495;-58
2023/04/25 03:47:54;;;;;;;10.57;5.05;;;;;;;3.04;100.00;93224.69;4757585;30;20425;-58
2023/04/25 03:50:41;;;;;;;14.50;6.97;;;;;;;3.09;100.00;93234.38;4768476;30;20493;-58
2023/04/25 03:53:27;;;;;;;9.02;4.75;;;;;;;3.07;100.00;93228.56;4764386;30;20063;-58
2023/04/25 03:56:14;;;;;;;6.85;4.25;;;;;;;3.05;100.00;93233.59;4768421;30;20055;-58
2023/04/25 03:59:01;;;;;;;10.75;4.72;;;;;;;2.99;100.00;93228.53;4768431;30;20055;-58
2023/04/25 04:01:48;;;;;;;12.18;5.30;;;;;;;2.96;100.00;93225.84;4766339;30;20131;-58
2023/04/25 04:04:35;;;;;;;7.87;4.50;;;;;;;2.96;100.00;93229.31;4768631;30;20156;-58
2023/04/25 04:07:22;;;;;;;8.60;4.55;;;;;;;2.96;100.00;93217.69;4771875;30;20062;-58
2023/04/25 04:10:10;;;;;;;9.00;4.60;;;;;;;3.03;100.00;93216.94;4765223;30;20141;-58
2023/04/25 04:12:57;;;;;;;11.00;4.70;;;;;;;3.09;100.00;93235.13;4771462;30;20087;-58
2023/04/25 04:15:44;;;;;;;8.32;5.03;;;;;;;3.01;100.00;93236.28;4771679;30;20077;-58
2023/04/25 04:18:31;;;;;;;10.90;4.83;;;;;;;3.09;100.00;93232.44;4771485;30;20127;-58
2023/04/25 04:21:17;;;;;;;12.13;6.10;;;;;;;3.03;100.00;93230.50;4771392;30;20056;-58
2023/04/25 04:24:05;;;;;;;10.00;5.28;;;;;;;3.18;100.00;93223.94;4771444;30;20052;-59
2023/04/25 04:26:52;;;;;;;10.75;5.00;;;;;;;3.21;100.00;93228.56;4771231;30;20058;-58
2023/04/25 04:29:39;;;;;;;9.20;5.18;;;;;;;3.32;100.00;93220.44;4771990;30;20409;-57
2023/04/25 04:32:27;;;;;;;8.10;4.23;;;;;;;3.38;100.00;93222.41;4770760;30;20079;-58
2023/04/25 04:35:14;;;;;;;10.73;4.82;;;;;;;3.53;100.00;93223.19;4771813;30;20141;-58
2023/04/25 04:38:01;;;;;;;8.95;4.70;;;;;;;3.52;100.00;93221.63;4763823;30;20059;-57
2023/04/25 04:40:48;;;;;;;12.93;5.78;;;;;;;3.53;100.00;93212.31;4771166;30;20044;-58
2023/04/25 04:43:34;;;;;;;12.20;6.70;;;;;;;3.60;100.00;93204.19;4768336;30;20103;-58
2023/04/25 04:46:22;;;;;;;10.33;5.50;;;;;;;3.25;100.00;93212.31;4771849;30;20055;-58
2023/04/25 04:49:10;;;;;;;10.15;5.18;;;;;;;3.29;100.00;93213.09;4770715;30;20498;-58
2023/04/25 04:51:57;;;;;;;19.85;10.13;;;;;;;3.27;100.00;93212.72;4771417;30;20055;-58
2023/04/25 04:54:45;;;;;;;13.00;6.18;;;;;;;3.21;100.00;93217.72;4768696;30;20047;-58
2023/04/25 04:57:32;;;;;;;14.95;7.00;;;;;;;3.23;100.00;93220.84;4771566;30;20356;-58
2023/04/25 05:00:20;;;;;;;13.73;7.07;;;;;;;3.20;100.00;93227.03;4758452;30;20052;-58
2023/04/25 05:03:07;;;;;;;10.98;5.93;;;;;;;3.10;100.00;93223.16;4760642;30;20108;-58
2023/04/25 05:05:54;;;;;;;13.77;6.72;;;;;;;3.36;100.00;93221.22;4771341;30;20066;-58
2023/04/25 05:08:41;;;;;;;17.83;8.18;;;;;;;3.48;100.00;93214.66;4771307;30;20429;-58
2023/04/25 05:11:28;;;;;;;14.18;6.97;;;;;;;3.43;100.00;93215.81;4770775;30;20060;-58
2023/04/25 05:14:16;;;;;;;16.20;7.83;;;;;;;3.63;100.00;93224.34;4770494;30;20117;-58
2023/04/25 05:17:06;;;;;;;15.57;7.18;;;;;;;3.77;100.00;93220.84;4769567;30;20105;-60
2023/04/25 05:19:53;;;;;;;13.43;7.03;;;;;;;3.85;100.00;93219.69;4769925;30;20140;-57
2023/04/25 05:22:41;;;;;;;17.08;7.97;;;;;;;3.73;100.00;93211.94;4768160;30;20111;-58
2023/04/25 05:25:28;;;;;;;25.08;10.52;;;;;;;3.73;100.00;93215.41;4770226;30;20063;-58
2023/04/25 05:28:15;;;;;;;47.13;19.70;;;;;;;3.53;100.00;93212.31;4770605;30;20060;-57
2023/04/25 05:31:02;;;;;;;40.78;18.33;;;;;;;3.58;100.00;93213.88;4769578;30;20069;-58
2023/04/25 05:33:49;;;;;;;32.95;14.65;;;;;;;3.68;100.00;93218.53;4769742;30;20047;-58
2023/04/25 05:36:36;;;;;;;23.80;12.25;;;;;;;3.87;100.00;93219.28;4754670;30;20165;-58
2023/04/25 05:39:23;;;;;;;18.85;10.02;;;;;;;3.87;100.00;93222.00;4769521;30;20528;-58
2023/04/25 05:42:10;;;;;;;12.00;6.80;;;;;;;3.94;100.00;93228.22;4769762;30;20059;-58
2023/04/25 05:44:57;;;;;;;9.82;5.32;;;;;;;4.12;100.00;93225.44;4770142;30;20110;-58
2023/04/25 05:47:44;;;;;;;9.60;5.28;;;;;;;4.49;100.00;93224.19;4769645;30;20138;-60
2023/04/25 05:50:31;;;;;;;7.38;4.57;;;;;;;4.36;100.00;93223.81;4765304;30;20052;-58
2023/04/25 05:53:19;;;;;;;9.55;5.30;;;;;;;4.47;100.00;93223.81;4770078;30;20099;-59
2023/04/25 05:56:05;;;;;;;9.47;5.00;;;;;;;4.58;100.00;93227.25;4770231;30;20082;-58
2023/04/25 05:58:53;;;;;;;9.63;4.38;;;;;;;4.83;100.00;93220.94;4768945;30;20135;-58
2023/04/25 06:01:40;;;;;;;8.57;5.07;;;;;;;5.05;100.00;93213.44;4769995;30;20056;-58
2023/04/25 06:04:27;;;;;;;8.25;4.80;;;;;;;5.49;100.00;93203.81;4767177;30;20135;-58
2023/04/25 06:07:14;;;;;;;10.38;4.60;;;;;;;5.82;100.00;93209.03;4770430;30;20048;-58
2023/04/25 06:10:01;;;;;;;9.23;4.73;;;;;;;6.03;100.00;93210.78;4770098;30;20059;-58
2023/04/25 06:12:48;;;;;;;8.13;4.72;;;;;;;6.09;100.00;93215.38;4766760;30;20063;-59
2023/04/25 06:15:44;;;;;;;10.98;5.60;;;;;;;6.19;100.00;93214.50;4768949;30;20062;-58
2023/04/25 06:18:31;;;;;;;9.80;5.15;;;;;;;5.93;100.00;93213.16;4769240;30;20501;-58
2023/04/25 06:21:18;;;;;;;8.63;5.00;;;;;;;5.84;100.00;93218.31;4768940;30;20059;-57
2023/04/25 06:24:05;;;;;;;8.73;5.47;;;;;;;5.47;100.00;93219.00;4769418;30;20059;-59
2023/04/25 06:26:52;;;;;;;8.40;5.70;;;;;;;5.38;100.00;93220.22;4769624;30;20481;-57
2023/04/25 06:29:39;;;;;;;10.45;6.10;;;;;;;5.42;100.00;93219.44;4769772;30;20122;-57
2023/04/25 06:32:27;;;;;;;9.07;5.60;;;;;;;5.15;100.00;93219.97;4769507;30;20391;-57
2023/04/25 06:35:15;;;;;;;8.77;5.60;;;;;;;5.15;100.00;93218.06;4769884;30;20062;-59
2023/04/25 06:38:02;;;;;;;10.80;5.50;;;;;;;5.16;100.00;93219.59;4769847;30;20566;-60
2023/04/25 06:40:49;;;;;;;9.68;6.13;;;;;;;5.44;100.00;93206.22;4769017;30;20207;-59
2023/04/25 06:43:36;;;;;;;10.90;5.55;;;;;;;5.63;100.00;93210.31;4769841;30;20586;-59
2023/04/25 06:46:22;;;;;;;13.10;5.88;;;;;;;5.75;100.00;93210.59;4752825;30;20062;-59
2023/04/25 06:49:10;;;;;;;11.85;6.18;;;;;;;5.63;100.00;93208.38;4769650;30;20063;-59
2023/04/25 06:51:56;;;;;;;8.63;4.80;;;;;;;5.80;100.00;93209.41;4769243;30;20063;-57
2023/04/25 06:54:44;;;;;;;9.68;5.65;;;;;;;5.83;100.00;93205.09;4769646;30;20413;-59
2023/04/25 06:57:31;;;;;;;13.10;7.05;;;;;;;5.88;100.00;93204.69;4768749;30;20571;-57
2023/04/25 07:00:18;;;;;;;11.45;6.50;;;;;;;5.95;100.00;93205.41;4765421;30;20109;-57
2023/04/25 07:03:05;;;;;;;15.73;8.23;;;;;;;5.85;100.00;93208.97;4757304;30;20445;-58
2023/04/25 07:05:52;;;;;;;15.43;6.90;;;;;;;5.69;100.00;93208.72;4764975;30;20052;-58
2023/04/25 07:08:39;;;;;;;15.20;6.35;;;;;;;5.70;100.00;93199.38;4770083;29;20064;-62
2023/04/25 07:11:26;;;;;;;12.93;6.57;;;;;;;5.81;100.00;93213.66;4768812;30;20138;-57
2023/04/25 07:14:13;;;;;;;11.23;6.05;;;;;;;5.89;100.00;93214.38;4762692;30;20112;-57
2023/04/25 07:17:00;;;;;;;9.73;4.82;;;;;;;5.87;100.00;93217.50;4768749;30;20136;-57
2023/04/25 07:19:46;;;;;;;9.47;5.10;;;;;;;5.80;100.00;93215.63;4769212;30;20078;-57
2023/04/25 07:22:33;;;;;;;14.32;7.32;;;;;;;5.78;100.00;93223.44;4768657;30;20059;-58
2023/04/25 07:25:20;;;;;;;14.93;8.63;;;;;;;5.92;100.00;93225.25;4768851;30;20074;-57
2023/04/25 07:28:07;;;;;;;8.73;4.90;;;;;;;5.76;100.00;93217.59;4768813;30;20085;-59
2023/04/25 07:30:54;;;;;;;9.30;4.80;;;;;;;5.31;100.00;93224.94;4768379;30;20056;-58
2023/04/25 07:33:41;;;;;;;10.83;5.30;;;;;;;5.46;100.00;93237.28;4768629;30;20383;-57
2023/04/25 07:36:28;;;;;;;10.05;5.15;;;;;;;5.48;100.00;93237.66;4768697;30;20120;-57
2023/04/25 07:39:15;;;;;;;6.25;3.58;;;;;;;5.03;100.00;93242.19;4763643;30;20467;-58
2023/04/25 07:42:02;;;;;;;6.55;2.70;;;;;;;4.70;100.00;93250.50;4771708;30;20055;-57
2023/04/25 07:44:48;;;;;;;5.20;3.15;;;;;;;4.67;100.00;93253.22;4772070;30;20075;-58
2023/04/25 07:47:36;;;;;;;3.93;2.33;;;;;;;4.61;100.00;93252.88;4771620;30;20047;-59
2023/04/25 07:50:23;;;;;;;5.57;2.65;;;;;;;4.33;100.00;93256.44;4766626;30;20079;-58
2023/04/25 07:53:10;;;;;;;5.53;2.83;;;;;;;4.50;100.00;93258.31;4772380;29;20476;-58
2023/04/25 07:55:57;;;;;;;5.18;2.70;;;;;;;4.73;100.00;93259.81;4772304;30;20052;-58
2023/04/25 07:58:44;;;;;;;3.78;2.05;;;;;;;4.58;100.00;93273.44;4771977;30;20139;-58
2023/04/25 08:01:30;;;;;;;3.47;1.57;;;;;;;4.64;100.00;93273.06;4771277;30;20051;-58
2023/04/25 08:04:17;;;;;;;3.58;1.90;;;;;;;4.75;100.00;93274.56;4769866;30;20052;-58
2023/04/25 08:07:05;;;;;;;4.53;2.00;;;;;;;4.41;100.00;93285.16;4773020;30;20058;-58
2023/04/25 08:09:54;;;;;;;3.00;1.90;;;;;;;4.19;100.00;93293.31;4771170;30;20418;-58
2023/04/25 08:12:41;;;;;;;4.93;2.55;;;;;;;4.15;100.00;93302.66;4771542;30;20141;-58
2023/04/25 08:15:27;;;;;;;2.80;1.20;;;;;;;3.62;100.00;93297.97;4771533;30;20068;-58
2023/04/25 08:18:14;;;;;;;2.55;1.15;;;;;;;3.48;100.00;93312.28;4771279;30;20056;-58
2023/04/25 08:21:03;;;;;;;2.72;1.38;;;;;;;3.44;100.00;93317.75;4771167;30;20382;-57
2023/04/25 08:23:50;;;;;;;2.88;1.23;;;;;;;3.45;100.00;93318.50;4772415;30;20094;-57
2023/04/25 08:26:38;;;;;;;3.40;2.40;;;;;;;3.68;100.00;93315.44;4771977;30;20056;-57
2023/04/25 08:29:25;;;;;;;3.57;2.50;;;;;;;3.89;100.00;93330.97;4771570;30;20059;-58
2023/04/25 08:32:12;;;;;;;3.15;1.50;;;;;;;4.16;100.00;93320.47;4772011;30;20502;-57
2023/04/25 08:34:59;;;;;;;2.55;1.42;;;;;;;4.43;100.00;93320.06;4761171;30;20079;-58
2023/04/25 08:37:46;;;;;;;2.80;1.30;;;;;;;4.65;100.00;93326.22;4771645;30;20108;-58
2023/04/25 08:40:38;;;;;;;3.20;1.60;;;;;;;4.84;100.00;93327.75;4771750;30;20506;-58
2023/04/25 08:43:25;;;;;;;3.13;1.50;;;;;;;4.79;100.00;93334.38;4771010;30;20141;-58
2023/04/25 08:46:12;;;;;;;9.98;4.90;;;;;;;4.71;100.00;93333.59;4771235;30;20066;-57
2023/04/25 08:49:02;;;;;;;5.07;2.80;;;;;;;4.81;100.00;93345.63;4770997;30;20465;-57
2023/04/25 08:51:51;;;;;;;5.22;2.72;;;;;;;4.48;100.00;93352.28;4769634;30;20573;-58
2023/04/25 08:54:43;;;;;;;4.82;2.10;;;;;;;5.02;100.00;93352.91;4771436;30;20087;-58
2023/04/25 08:57:31;;;;;;;3.30;1.77;;;;;;;5.39;100.00;93362.47;4770967;30;20067;-57
2023/04/25 09:00:18;;;;;;;3.28;1.45;;;;;;;4.24;100.00;93364.72;4770762;30;20142;-58
2023/04/25 09:03:05;;;;;;;4.35;1.90;;;;;;;4.77;100.00;93374.75;4770736;30;20205;-58
2023/04/25 09:05:54;;;;;;;3.45;1.42;;;;;;;5.25;100.00;93376.16;4770695;30;20052;-58
2023/04/25 09:08:41;;;;;;;2.30;1.40;;;;;;;3.96;100.00;93377.91;4771116;30;20055;-57
2023/04/25 09:11:28;;;;;;;2.63;1.20;;;;;;;3.43;100.00;93389.41;4770767;30;20051;-57
2023/04/25 09:14:24;;;;;;;2.15;1.27;;;;;;;3.47;100.00;93394.84;4771001;30;20047;-57
2023/04/25 09:17:12;;;;;;;2.60;1.60;;;;;;;4.02;100.00;93389.13;4771224;30;20056;-57
2023/04/25 09:20:09;;;;;;;2.70;1.55;;;;;;;3.26;100.00;93401.75;4770928;30;20079;-57
2023/04/25 09:23:06;;;;;;;2.50;1.70;;;;;;;3.72;100.00;93392.19;4761700;30;20044;-58
2023/04/25 09:25:54;;;;;;;3.73;2.00;;;;;;;4.35;100.00;93401.56;4770729;30;20423;-57
2023/04/25 09:28:42;;;;;;;3.25;1.80;;;;;;;5.18;100.00;93410.38;4770361;30;20052;-58
2023/04/25 09:31:32;;;;;;;4.65;2.70;;;;;;;5.78;100.00;93400.41;4770737;30;20484;-57
2023/04/25 09:34:20;;;;;;;3.42;1.58;;;;;;;6.34;100.00;93395.00;4759428;30;20509;-57
2023/04/25 09:37:08;;;;;;;6.43;2.75;;;;;;;7.38;100.00;93393.22;4770924;30;20051;-58
2023/04/25 09:39:59;;;;;;;2.83;1.53;;;;;;;8.89;100.00;93397.34;4770338;30;20076;-57
2023/04/25 09:42:46;;;;;;;3.67;2.00;;;;;;;8.60;100.00;93399.78;4767508;30;20582;-57
2023/04/25 09:45:41;;;;;;;2.63;1.60;;;;;;;8.54;100.00;93413.16;4769556;30;20092;-58
2023/04/25 09:48:29;;;;;;;4.15;2.13;;;;;;;8.93;100.00;93411.75;4765874;30;20052;-60
2023/04/25 09:51:16;;;;;;;3.92;2.45;;;;;;;8.89;100.00;93411.03;4771094;29;20068;-57
2023/04/25 09:54:03;;;;;;;3.20;1.87;;;;;;;8.81;100.00;93417.81;4768371;30;20044;-57
2023/04/25 09:56:54;;;;;;;3.65;1.88;;;;;;;8.80;100.00;93411.56;4770262;30;20109;-58
2023/04/25 09:59:52;;;;;;;2.92;1.50;;;;;;;10.13;100.00;93416.50;4767477;30;20060;-58
2023/04/25 10:02:46;;;;;;;3.22;1.55;;;;;;;8.19;100.00;93422.66;4760528;30;20075;-58
2023/04/25 10:05:35;;;;;;;3.72;1.45;;;;;;;9.59;100.00;93420.31;4769737;30;20047;-57
2023/04/25 10:08:23;;;;;;;2.57;1.63;;;;;;;8.12;100.00;93420.78;4770094;30;20055;-57
2023/04/25 10:11:10;;;;;;;2.88;1.67;;;;;;;8.60;100.00;93416.97;4769560;30;20130;-57
2023/04/25 10:13:57;;;;;;;2.50;1.30;;;;;;;9.85;100.00;93413.16;4769193;30;20055;-57
2023/04/25 10:16:45;;;;;;;2.63;1.40;;;;;;;10.82;100.00;93410.25;4770117;30;20150;-58
2023/04/25 10:19:32;;;;;;;2.20;1.30;;;;;;;12.32;100.00;93400.72;4769717;30;20060;-58
2023/04/25 10:22:30;;;;;;;4.03;1.10;;;;;;;11.91;96.60;93404.25;4763861;30;20132;-58
2023/04/25 10:25:18;;;;;;;3.17;1.80;;;;;;;11.63;92.36;93406.59;4770591;29;20122;-58
2023/04/25 10:28:05;;;;;;;3.50;1.95;;;;;;;12.41;91.51;93399.28;4769493;30;20051;-59
2023/04/25 10:31:18;;;;;;;2.50;1.50;;;;;;;12.40;93.54;93404.00;4769416;30;20058;-58
2023/04/25 10:34:05;;;;;;;2.95;1.80;;;;;;;10.51;94.69;93405.88;4769539;30;20445;-58
2023/04/25 10:36:52;;;;;;;3.00;1.70;;;;;;;8.96;100.00;93418.34;4769553;30;20107;-57
2023/04/25 10:39:41;;;;;;;3.40;1.83;;;;;;;8.50;100.00;93426.13;4769500;30;20117;-58
2023/04/25 10:42:28;;;;;;;3.92;2.67;;;;;;;8.86;100.00;93427.53;4769424;30;20058;-59
2023/04/25 10:45:15;;;;;;;2.50;1.40;;;;;;;9.20;100.00;93419.88;4770145;30;20043;-59
2023/04/25 10:48:02;;;;;;;2.75;1.63;;;;;;;8.76;100.00;93427.28;4768227;30;20086;-58
2023/04/25 10:50:49;;;;;;;3.10;1.90;;;;;;;9.27;100.00;93424.44;4760728;30;20058;-56
2023/04/25 10:53:37;;;;;;;2.45;1.40;;;;;;;8.73;100.00;93422.66;4768857;30;20079;-65
2023/04/25 10:56:28;;;;;;;2.88;1.20;;;;;;;9.92;100.00;93428.66;4768522;30;20568;-58
2023/04/25 10:59:20;;;;;;;2.28;1.20;;;;;;;10.36;100.00;93429.34;4768378;30;20056;-56
2023/04/25 11:02:12;;;;;;;2.63;1.40;;;;;;;11.91;99.03;93426.25;4768845;30;20048;-56
2023/04/25 11:05:00;;;;;;;3.00;1.50;;;;;;;10.08;100.00;93433.44;4769193;30;20078;-58
2023/04/25 11:07:51;;;;;;;2.47;1.23;;;;;;;8.80;100.00;93432.69;4768723;30;20502;-57
2023/04/25 11:10:52;;;;;;;2.50;1.15;;;;;;;8.19;100.00;93433.59;4768967;30;20060;-56
2023/04/25 11:13:39;;;;;;;2.90;1.48;;;;;;;8.31;100.00;93443.16;4769143;30;20062;-59
2023/04/25 11:16:26;;;;;;;1.80;0.90;;;;;;;9.10;100.00;93436.50;4768311;30;20052;-59
2023/04/25 11:19:14;;;;;;;3.10;1.07;;;;;;;9.41;100.00;93434.38;4769334;30;20056;-65
2023/04/25 11:22:03;;;;;;;1.90;1.00;;;;;;;9.85;100.00;93448.03;4768896;30;20146;-59
2023/04/25 11:24:51;;;;;;;2.17;1.10;;;;;;;10.50;100.00;93445.50;4768731;30;20056;-56
2023/04/25 11:27:54;;;;;;;1.70;0.73;;;;;;;10.65;99.32;93434.19;4768637;30;20059;-56
2023/04/25 11:30:49;;;;;;;1.80;0.70;;;;;;;10.81;94.75;93434.19;4769102;30;20632;-56
2023/04/25 11:33:36;;;;;;;2.07;0.90;;;;;;;10.09;100.00;93432.25;4769231;30;20549;-57
2023/04/25 11:36:24;;;;;;;3.72;1.10;;;;;;;9.08;100.00;93434.19;4768247;30;20093;-58
2023/04/25 11:39:11;;;;;;;2.17;0.80;;;;;;;10.05;100.00;93437.03;4769262;30;20463;-57
2023/04/25 11:41:58;;;;;;;2.80;0.70;;;;;;;10.59;100.00;93442.91;4768503;30;20166;-57
2023/04/25 11:44:52;;;;;;;2.78;0.80;;;;;;;11.31;95.00;93437.69;4768721;30;20464;-58
2023/04/25 11:47:41;;;;;;;2.10;0.50;;;;;;;11.75;91.03;93438.06;4759994;30;20255;-57
2023/04/25 11:50:28;;;;;;;1.60;0.70;;;;;;;11.85;86.71;93428.78;4764139;30;20051;-57
2023/04/25 11:53:17;;;;;;;2.58;1.13;;;;;;;9.96;97.71;93446.59;4768997;30;20140;-58
2023/04/25 11:56:10;;;;;;;2.60;0.88;;;;;;;11.18;93.22;93441.09;4768337;30;20465;-57
2023/04/25 11:58:59;;;;;;;2.15;1.10;;;;;;;11.05;95.18;93437.53;4769101;30;20194;-57
2023/04/25 12:01:58;;;;;;;2.43;0.90;;;;;;;10.65;95.95;93456.91;4768939;30;20052;-57
2023/04/25 12:04:46;;;;;;;4.63;0.98;;;;;;;11.74;90.00;93444.78;4769094;30;20084;-57
2023/04/25 12:07:34;;;;;;;1.70;0.60;;;;;;;10.70;92.93;93461.88;4768190;30;20052;-58
2023/04/25 12:10:21;;;;;;;2.08;1.10;;;;;;;11.99;87.59;93455.09;4769601;30;20067;-57
2023/04/25 12:13:25;;;;;;;2.45;1.10;;;;;;;11.79;88.13;93455.22;4768992;30;20056;-58
2023/04/25 12:16:12;;;;;;;2.53;1.00;;;;;;;12.51;83.55;93459.47;4768450;30;20488;-57
2023/04/25 12:18:59;;;;;;;4.68;1.02;;;;;;;11.81;84.54;93455.56;4768034;30;20067;-58
2023/04/25 12:21:47;;;;;;;2.05;0.90;;;;;;;11.82;82.83;93465.38;4767739;30;20509;-57
2023/04/25 12:24:37;;;;;;;1.77;0.88;;;;;;;11.72;84.05;93455.44;4767013;30;20218;-58
2023/04/25 12:27:28;;;;;;;7.18;1.20;;;;;;;12.08;83.46;93468.22;4766305;30;20066;-57
2023/04/25 12:30:15;;;;;;;2.23;1.37;;;;;;;11.99;79.39;93466.09;4765424;30;20489;-62
2023/04/25 12:33:02;;;;;;;2.85;1.70;;;;;;;11.31;84.63;93462.41;4771243;30;20063;-57
2023/04/25 12:35:49;;;;;;;3.45;1.95;;;;;;;11.65;83.08;93470.16;4769211;30;20079;-57
2023/04/25 12:38:38;;;;;;;2.70;1.90;;;;;;;11.62;82.07;93462.75;4767742;30;20210;-57
2023/04/25 12:41:25;;;;;;;2.72;1.70;;;;;;;10.50;87.03;93469.38;4771165;30;20140;-57
2023/04/25 12:44:13;;;;;;;3.10;1.90;;;;;;;10.46;89.44;93461.22;4765429;30;20062;-57
2023/04/25 12:47:00;;;;;;;3.50;2.15;;;;;;;9.75;95.39;93479.91;4771462;30;20062;-57
2023/04/25 12:49:47;;;;;;;4.63;2.90;;;;;;;11.52;86.69;93472.81;4772633;30;20059;-57
2023/04/25 12:52:33;;;;;;;5.50;3.30;;;;;;;11.36;86.67;93481.88;4771001;30;20179;-57
2023/04/25 12:55:20;;;;;;;3.17;1.90;;;;;;;12.29;78.64;93475.84;4770887;30;20121;-57
2023/04/25 12:58:07;;;;;;;7.60;2.73;;;;;;;11.43;87.11;93482.88;4760782;30;20051;-57
2023/04/25 13:00:54;;;;;;;3.22;2.00;;;;;;;10.89;82.59;93487.72;4770918;30;20117;-57
2023/04/25 13:03:41;;;;;;;3.40;1.88;;;;;;;10.23;87.22;93497.75;4770661;30;20052;-57
2023/04/25 13:06:30;;;;;;;4.05;2.50;;;;;;;9.92;90.42;93495.25;4771470;30;20140;-59
2023/04/25 13:09:17;;;;;;;3.50;2.15;;;;;;;10.79;84.10;93499.72;4771305;30;20056;-59